createdAt,value
2018-01-11T00:02:54.950Z,94.26
2018-01-11T00:08:59.386Z,94.06
2018-01-11T00:15:02.916Z,93.95
2018-01-11T00:21:07.146Z,94.01
2018-01-11T00:27:10.729Z,94.12
2018-01-11T00:33:14.473Z,94.21
2018-01-11T00:39:18.675Z,93.57
2018-01-11T00:45:22.885Z,92.85
2018-01-11T00:51:26.478Z,93.00
2018-01-11T00:57:29.874Z,93.33
2018-01-11T01:03:33.429Z,93.52
2018-01-11T01:09:36.890Z,93.02
2018-01-11T01:15:40.364Z,93.23
2018-01-11T01:21:43.837Z,93.27
2018-01-11T01:27:47.342Z,93.20
2018-01-11T01:33:50.933Z,93.40
2018-01-11T01:39:55.494Z,93.51
2018-01-11T01:45:59.138Z,93.52
2018-01-11T01:52:02.580Z,93.37
2018-01-11T01:58:06.814Z,93.31
2018-01-11T02:04:10.319Z,93.56
2018-01-11T02:10:13.780Z,93.41
2018-01-11T02:16:17.232Z,92.80
2018-01-11T02:22:20.673Z,92.96
2018-01-11T02:28:24.293Z,92.78
2018-01-11T02:34:28.102Z,93.17
2018-01-11T02:40:31.550Z,93.08
2018-01-11T02:46:34.991Z,92.82
2018-01-11T02:52:38.463Z,93.22
2018-01-11T02:58:41.944Z,93.46
2018-01-11T03:04:45.379Z,93.49
2018-01-11T03:10:49.159Z,93.28
2018-01-11T03:16:52.644Z,93.73
2018-01-11T03:22:57.055Z,93.54
2018-01-11T03:29:00.588Z,93.17
2018-01-11T03:35:04.799Z,93.14
2018-01-11T03:41:08.262Z,93.13
2018-01-11T03:47:12.642Z,93.37
2018-01-11T03:53:16.090Z,92.91
2018-01-11T03:59:19.560Z,92.76
2018-01-11T04:05:23.009Z,92.82
2018-01-11T04:11:27.502Z,92.66
2018-01-11T04:17:30.959Z,92.61
2018-01-11T04:23:35.350Z,93.01
2018-01-11T04:29:39.558Z,92.91
2018-01-11T04:35:43.035Z,93.16
2018-01-11T04:41:46.554Z,93.34
2018-01-11T04:47:50.770Z,93.35
2018-01-11T04:53:54.415Z,93.65
2018-01-11T04:59:58.929Z,93.61
2018-01-11T05:06:02.428Z,93.38
2018-01-11T05:12:06.006Z,93.54
2018-01-11T05:18:09.657Z,93.27
2018-01-11T05:24:13.230Z,93.00
2018-01-11T05:30:17.435Z,93.38
2018-01-11T05:36:21.060Z,93.19
2018-01-11T05:42:25.191Z,93.28
2018-01-11T05:48:28.821Z,93.30
2018-01-11T05:54:32.280Z,92.93
2018-01-11T06:00:36.021Z,93.03
2018-01-11T06:06:39.482Z,92.85
2018-01-11T06:12:42.950Z,93.08
2018-01-11T06:18:46.554Z,93.35
2018-01-11T06:24:50.028Z,93.37
2018-01-11T06:30:54.856Z,93.04
2018-01-11T06:36:59.196Z,92.73
2018-01-11T06:43:02.671Z,92.72
2018-01-11T06:49:06.945Z,92.86
2018-01-11T06:55:10.476Z,92.79
2018-01-11T07:01:14.790Z,92.92
2018-01-11T07:07:18.268Z,93.10
2018-01-11T07:13:22.029Z,93.26
2018-01-11T07:19:25.571Z,93.34
2018-01-11T07:25:29.069Z,92.81
2018-01-11T07:31:32.557Z,92.37
2018-01-11T07:37:36.127Z,93.10
2018-01-11T07:43:39.572Z,93.25
2018-01-11T07:49:43.060Z,93.61
2018-01-11T07:55:47.060Z,93.43
2018-01-11T08:01:50.538Z,93.58
2018-01-11T08:07:54.050Z,92.99
2018-01-11T08:13:58.468Z,92.72
2018-01-11T08:20:02.031Z,92.74
2018-01-11T08:26:05.519Z,92.68
2018-01-11T08:32:08.961Z,93.05
2018-01-11T08:38:12.458Z,92.58
2018-01-11T08:44:15.923Z,93.28
2018-01-11T08:50:19.359Z,92.84
2018-01-11T08:56:24.181Z,91.96
2018-01-11T09:02:28.216Z,92.46
2018-01-11T09:08:32.431Z,92.91
2018-01-11T09:14:35.905Z,93.20
2018-01-11T09:20:39.632Z,92.98
2018-01-11T09:26:43.094Z,92.19
2018-01-11T09:32:46.528Z,92.12
2018-01-11T09:38:50.003Z,91.40
2018-01-11T09:44:53.699Z,90.48
2018-01-11T09:50:57.844Z,89.82
2018-01-11T09:57:01.456Z,89.43
2018-01-11T10:03:05.191Z,88.64
2018-01-11T10:09:09.417Z,88.65
2018-01-11T10:15:12.924Z,88.84
2018-01-11T10:21:17.166Z,89.30
2018-01-11T10:27:20.618Z,89.47
2018-01-11T10:33:24.117Z,88.55
2018-01-11T10:39:28.433Z,87.19
2018-01-11T10:45:31.874Z,87.00
2018-01-11T10:51:35.344Z,87.58
2018-01-11T10:57:38.860Z,87.67
2018-01-11T11:03:42.314Z,88.56
2018-01-11T11:09:45.740Z,88.68
2018-01-11T11:15:49.950Z,89.29
2018-01-11T11:21:53.438Z,89.25
2018-01-11T11:27:57.287Z,89.30
2018-01-11T11:34:00.765Z,89.57
2018-01-11T11:40:04.205Z,90.09
2018-01-11T11:46:07.650Z,90.12
2018-01-11T11:52:11.126Z,90.18
2018-01-11T11:58:15.325Z,90.45
2018-01-11T12:04:18.800Z,90.47
2018-01-11T12:10:22.303Z,90.97
2018-01-11T12:16:26.213Z,90.98
2018-01-11T12:22:30.748Z,90.92
2018-01-11T12:28:34.966Z,90.97
2018-01-11T12:34:38.432Z,90.48
2018-01-11T12:40:41.905Z,90.57
2018-01-11T12:46:45.378Z,90.48
2018-01-11T12:52:49.613Z,90.57
2018-01-11T12:58:53.110Z,89.98
2018-01-11T13:04:57.650Z,89.52
2018-01-11T13:11:01.118Z,89.40
2018-01-11T13:17:04.591Z,88.60
2018-01-11T13:23:09.007Z,89.65
2018-01-11T13:29:12.472Z,88.20
2018-01-11T13:35:15.921Z,88.15
2018-01-11T13:41:19.427Z,88.78
2018-01-11T13:47:23.702Z,89.33
2018-01-11T13:53:27.246Z,89.65
2018-01-11T13:59:30.766Z,90.03
2018-01-11T14:05:34.213Z,89.82
2018-01-11T14:11:37.662Z,90.00
2018-01-11T14:17:41.106Z,89.99
2018-01-11T14:23:44.544Z,89.22
2018-01-11T14:29:48.039Z,89.29
2018-01-11T14:35:51.486Z,89.21
2018-01-11T14:41:54.972Z,89.12
2018-01-11T14:47:59.348Z,89.06
2018-01-11T14:54:02.964Z,89.43
2018-01-11T15:00:06.433Z,89.92
2018-01-11T15:06:09.967Z,90.24
2018-01-11T15:12:13.427Z,90.29
2018-01-11T15:18:16.905Z,90.52
2018-01-11T15:24:20.342Z,91.03
2018-01-11T15:30:23.834Z,91.32
2018-01-11T15:36:28.202Z,91.50
2018-01-11T15:42:32.482Z,91.82
2018-01-11T15:48:36.695Z,91.96
2018-01-11T15:54:40.245Z,91.92
2018-01-11T16:00:43.685Z,91.68
2018-01-11T16:06:47.130Z,91.86
2018-01-11T16:12:50.546Z,92.26
2018-01-11T16:18:54.247Z,92.58
2018-01-11T16:24:58.040Z,92.39
2018-01-11T16:31:01.507Z,92.25
2018-01-11T16:37:04.972Z,92.43
2018-01-11T16:43:09.268Z,92.35
2018-01-11T16:49:13.498Z,92.34
2018-01-11T16:55:16.975Z,92.21
2018-01-11T17:01:21.192Z,92.36
2018-01-11T17:07:24.966Z,92.31
2018-01-11T17:13:28.647Z,92.06
2018-01-11T17:19:32.135Z,92.04
2018-01-11T17:25:36.432Z,92.18
2018-01-11T17:31:39.939Z,92.34
2018-01-11T17:37:43.445Z,92.08
2018-01-11T17:43:47.157Z,91.86
2018-01-11T17:49:50.597Z,92.02
2018-01-11T17:55:54.184Z,92.25
2018-01-11T18:01:58.669Z,92.38
2018-01-11T18:08:02.138Z,92.50
2018-01-11T18:14:05.598Z,92.61
2018-01-11T18:20:09.022Z,92.50
2018-01-11T18:26:13.301Z,92.25
2018-01-11T18:32:16.789Z,92.46
2018-01-11T18:38:20.293Z,92.73
2018-01-11T18:44:24.818Z,92.93
2018-01-11T18:50:29.350Z,92.85
2018-01-11T18:56:32.882Z,92.85
2018-01-11T19:02:36.532Z,93.27
2018-01-11T19:08:40.037Z,93.18
2018-01-11T19:14:44.254Z,93.02
2018-01-11T19:20:47.665Z,92.60
2018-01-11T19:26:51.115Z,92.14
2018-01-11T19:32:54.760Z,91.53
2018-01-11T19:38:58.676Z,91.85
2018-01-11T19:45:02.144Z,92.14
2018-01-11T19:51:06.623Z,93.10
2018-01-11T19:57:10.168Z,93.76
2018-01-11T20:03:13.598Z,93.46
2018-01-11T20:09:17.170Z,93.01
2018-01-11T20:15:20.758Z,93.12
2018-01-11T20:21:24.969Z,93.09
2018-01-11T20:27:28.461Z,93.27
2018-01-11T20:33:31.994Z,93.40
2018-01-11T20:39:35.456Z,93.11
2018-01-11T20:45:38.938Z,93.50
2018-01-11T20:51:42.409Z,94.17
2018-01-11T20:57:46.758Z,94.42
2018-01-11T21:03:50.253Z,94.48
2018-01-11T21:09:53.791Z,94.61
2018-01-11T21:15:58.390Z,94.40
2018-01-11T21:22:01.876Z,94.24
2018-01-11T21:28:05.451Z,93.92
2018-01-11T21:34:08.927Z,93.67
2018-01-11T21:40:13.154Z,93.59
2018-01-11T21:46:16.688Z,93.68
2018-01-11T21:52:20.190Z,93.66
2018-01-11T21:58:23.788Z,93.65
2018-01-11T22:04:27.295Z,93.87
2018-01-11T22:10:30.764Z,94.12
2018-01-11T22:16:35.000Z,94.41
2018-01-11T22:22:38.494Z,94.36
2018-01-11T22:28:42.786Z,95.69
2018-01-11T22:34:46.272Z,95.00
2018-01-11T22:40:49.766Z,94.35
2018-01-11T22:46:54.050Z,94.35
2018-01-11T22:52:58.534Z,94.55
2018-01-11T22:59:02.054Z,94.17
2018-01-11T23:05:05.531Z,93.71
2018-01-11T23:11:09.779Z,94.25
2018-01-11T23:17:13.244Z,94.78
2018-01-11T23:23:16.728Z,94.89
2018-01-11T23:29:20.178Z,95.15
2018-01-11T23:35:24.914Z,95.07
2018-01-11T23:41:28.664Z,94.88
2018-01-11T23:47:32.250Z,94.46
2018-01-11T23:53:35.720Z,94.47
2018-01-11T23:59:39.952Z,94.50
